Time;durP1;ratioP1;P1;durP2;ratioP2;P2;SDS_P1;SDS_P2;PMS_P1;PMS_P2;Temp;Humidity;BMP_temperature;BMP_pressure;BME280_temperature;BME280_humidity;BME280_pressure;Samples;Min_cycle;Max_cycle;Signal;HPM_P1;HPM_P2
2020/12/29 00:00:49;;;;;;;2.88;1.10;;;;;;;;;;5060128;28;20047;-65
2020/12/29 00:03:15;;;;;;;1.30;1.20;;;;;;;;;;5059525;28;20053;-64
2020/12/29 00:05:41;;;;;;;1.83;1.23;;;;;;;;;;5059919;28;20039;-65
2020/12/29 00:08:07;;;;;;;1.35;1.00;;;;;;;;;;5060492;28;20072;-65
2020/12/29 00:10:33;;;;;;;2.13;1.40;;;;;;;;;;5062559;28;20033;-64
2020/12/29 00:13:00;;;;;;;3.38;1.10;;;;;;;;;;5059952;28;20512;-64
2020/12/29 00:15:26;;;;;;;2.05;1.45;;;;;;;;;;5049124;28;20385;-64
2020/12/29 00:17:52;;;;;;;2.65;1.33;;;;;;;;;;5047225;28;20476;-65
2020/12/29 00:20:18;;;;;;;4.93;1.60;;;;;;;;;;5046998;28;20506;-64
2020/12/29 00:22:44;;;;;;;1.92;1.23;;;;;;;;;;5046560;28;20552;-65
2020/12/29 00:25:10;;;;;;;2.78;1.40;;;;;;;;;;5047350;28;20037;-64
2020/12/29 00:27:36;;;;;;;2.72;1.27;;;;;;;;;;5046958;28;20113;-65
2020/12/29 00:30:03;;;;;;;3.08;1.23;;;;;;;;;;5046879;28;20587;-64
2020/12/29 00:32:29;;;;;;;1.67;1.20;;;;;;;;;;5045776;28;20041;-65
2020/12/29 00:34:55;;;;;;;2.35;1.00;;;;;;;;;;5046960;28;20045;-64
2020/12/29 00:37:22;;;;;;;1.45;1.08;;;;;;;;;;5047103;28;20040;-65
2020/12/29 00:39:47;;;;;;;2.75;1.30;;;;;;;;;;5046909;28;20124;-64
2020/12/29 00:42:13;;;;;;;2.72;1.10;;;;;;;;;;5048716;28;20468;-65
2020/12/29 00:44:39;;;;;;;1.40;1.13;;;;;;;;;;5046932;28;20068;-64
2020/12/29 00:47:05;;;;;;;2.85;1.30;;;;;;;;;;5045413;28;20044;-65
2020/12/29 00:49:32;;;;;;;2.03;1.30;;;;;;;;;;5043708;28;20397;-64
2020/12/29 00:51:58;;;;;;;3.40;1.30;;;;;;;;;;5042763;28;20036;-64
2020/12/29 00:54:24;;;;;;;3.15;1.30;;;;;;;;;;5047388;28;20444;-64
2020/12/29 00:56:50;;;;;;;4.60;1.27;;;;;;;;;;5045800;28;20362;-64
2020/12/29 00:59:16;;;;;;;2.75;0.73;;;;;;;;;;5045711;28;20048;-64
2020/12/29 01:01:42;;;;;;;1.42;0.82;;;;;;;;;;5046490;28;20033;-65
2020/12/29 01:04:08;;;;;;;5.00;1.33;;;;;;;;;;5046794;28;20048;-64
2020/12/29 01:06:34;;;;;;;2.17;1.20;;;;;;;;;;5046626;28;20396;-65
2020/12/29 01:09:00;;;;;;;3.90;1.40;;;;;;;;;;5046807;28;20076;-64
2020/12/29 01:11:26;;;;;;;5.65;1.63;;;;;;;;;;5046132;28;20130;-64
2020/12/29 01:13:52;;;;;;;4.00;1.55;;;;;;;;;;5047265;28;20051;-63
2020/12/29 01:16:18;;;;;;;2.13;1.35;;;;;;;;;;5046333;28;20132;-64
2020/12/29 01:18:44;;;;;;;4.72;1.10;;;;;;;;;;5046876;28;20043;-64
2020/12/29 01:21:10;;;;;;;1.80;0.90;;;;;;;;;;5047069;28;20037;-64
2020/12/29 01:23:37;;;;;;;1.33;0.80;;;;;;;;;;5046656;28;20497;-64
2020/12/29 01:26:03;;;;;;;1.67;1.10;;;;;;;;;;5060290;28;20535;-65
2020/12/29 01:28:29;;;;;;;2.28;1.40;;;;;;;;;;5046043;28;20040;-64
2020/12/29 01:30:55;;;;;;;3.65;1.60;;;;;;;;;;5061601;28;20040;-64
2020/12/29 01:33:21;;;;;;;3.80;1.25;;;;;;;;;;5046693;28;20049;-64
2020/12/29 01:35:48;;;;;;;1.85;1.40;;;;;;;;;;5046225;28;20076;-64
2020/12/29 01:38:14;;;;;;;7.15;1.33;;;;;;;;;;5045961;28;20049;-65
2020/12/29 01:40:41;;;;;;;3.15;1.27;;;;;;;;;;5048238;28;20624;-65
2020/12/29 01:43:07;;;;;;;5.97;1.10;;;;;;;;;;5046594;28;20126;-64
2020/12/29 01:45:33;;;;;;;3.97;1.20;;;;;;;;;;5046170;28;20115;-64
2020/12/29 01:47:59;;;;;;;3.45;1.27;;;;;;;;;;5046365;28;20156;-64
2020/12/29 01:50:25;;;;;;;3.20;1.30;;;;;;;;;;5045584;28;20732;-65
2020/12/29 01:52:58;;;;;;;2.47;1.40;;;;;;;;;;5045739;28;20120;-64
2020/12/29 01:55:25;;;;;;;2.28;1.05;;;;;;;;;;5046258;28;20512;-64
2020/12/29 01:57:51;;;;;;;2.25;1.08;;;;;;;;;;5045119;28;20091;-64
2020/12/29 02:00:17;;;;;;;1.30;1.00;;;;;;;;;;5035003;28;20489;-64
2020/12/29 02:02:43;;;;;;;1.58;1.08;;;;;;;;;;5044444;28;20108;-64
2020/12/29 02:05:09;;;;;;;2.70;1.40;;;;;;;;;;5046183;28;20663;-64
2020/12/29 02:07:35;;;;;;;5.75;1.65;;;;;;;;;;5028203;28;20044;-64
2020/12/29 02:10:01;;;;;;;3.20;1.98;;;;;;;;;;5032713;28;20657;-64
2020/12/29 02:12:29;;;;;;;2.22;1.45;;;;;;;;;;5041958;28;20481;-64
2020/12/29 02:14:55;;;;;;;2.88;1.50;;;;;;;;;;5026254;28;20037;-65
2020/12/29 02:17:21;;;;;;;1.58;1.38;;;;;;;;;;5025152;28;20029;-64
2020/12/29 02:19:47;;;;;;;6.88;1.73;;;;;;;;;;5028732;28;20065;-65
2020/12/29 02:22:20;;;;;;;3.72;1.90;;;;;;;;;;5044953;28;20838;-64
2020/12/29 02:24:54;;;;;;;2.75;1.83;;;;;;;;;;5045682;28;20045;-64
2020/12/29 02:27:20;;;;;;;3.60;2.20;;;;;;;;;;5045179;28;20092;-65
2020/12/29 02:29:47;;;;;;;2.25;1.63;;;;;;;;;;5044883;28;20045;-65
2020/12/29 02:32:13;;;;;;;3.58;1.90;;;;;;;;;;5044983;28;20045;-65
2020/12/29 02:34:40;;;;;;;2.30;1.80;;;;;;;;;;5043943;28;20044;-64
2020/12/29 02:37:07;;;;;;;2.95;1.90;;;;;;;;;;5045164;28;20079;-65
2020/12/29 02:39:33;;;;;;;5.93;2.17;;;;;;;;;;5044051;28;20041;-64
2020/12/29 02:42:00;;;;;;;5.35;1.85;;;;;;;;;;5042427;28;20042;-65
2020/12/29 02:44:26;;;;;;;2.95;1.95;;;;;;;;;;5031109;28;20052;-64
2020/12/29 02:46:52;;;;;;;3.67;2.10;;;;;;;;;;5026255;28;20128;-64
2020/12/29 02:49:18;;;;;;;3.42;2.17;;;;;;;;;;5044456;28;20507;-64
2020/12/29 02:51:44;;;;;;;3.03;2.10;;;;;;;;;;5043834;28;20041;-64
2020/12/29 02:54:14;;;;;;;4.18;2.38;;;;;;;;;;5043980;28;20415;-64
2020/12/29 02:56:40;;;;;;;6.60;2.50;;;;;;;;;;5044070;28;20902;-64
2020/12/29 02:59:06;;;;;;;5.18;2.88;;;;;;;;;;5044414;28;20040;-64
2020/12/29 03:01:32;;;;;;;4.80;2.88;;;;;;;;;;5044044;28;20049;-64
2020/12/29 03:03:59;;;;;;;5.65;3.22;;;;;;;;;;5036722;28;20115;-64
2020/12/29 03:06:25;;;;;;;23.25;4.72;;;;;;;;;;5036723;28;20041;-64
2020/12/29 03:08:51;;;;;;;8.35;4.93;;;;;;;;;;5041413;28;20071;-64
2020/12/29 03:11:23;;;;;;;10.98;4.60;;;;;;;;;;5047136;28;20061;-64
2020/12/29 03:13:49;;;;;;;6.18;4.20;;;;;;;;;;5044216;28;20064;-64
2020/12/29 03:16:15;;;;;;;8.88;4.95;;;;;;;;;;5043518;28;20401;-64
2020/12/29 03:18:41;;;;;;;8.65;4.75;;;;;;;;;;5044745;28;20065;-64
2020/12/29 03:21:07;;;;;;;7.47;4.57;;;;;;;;;;5044417;28;20045;-64
2020/12/29 03:23:33;;;;;;;7.88;4.88;;;;;;;;;;5044368;28;20045;-64
2020/12/29 03:25:59;;;;;;;10.07;6.00;;;;;;;;;;5044509;28;20045;-64
2020/12/29 03:28:25;;;;;;;9.00;6.40;;;;;;;;;;5044041;28;20036;-64
2020/12/29 03:30:51;;;;;;;10.95;7.05;;;;;;;;;;5043925;28;20100;-64
2020/12/29 03:33:17;;;;;;;13.88;6.78;;;;;;;;;;5044051;28;20056;-64
2020/12/29 03:35:43;;;;;;;20.10;8.63;;;;;;;;;;5044549;28;20080;-64
2020/12/29 03:38:09;;;;;;;15.10;8.27;;;;;;;;;;5044857;28;20041;-64
2020/12/29 03:40:35;;;;;;;10.80;7.13;;;;;;;;;;5047249;28;20044;-64
2020/12/29 03:43:01;;;;;;;12.35;6.57;;;;;;;;;;5045119;28;20045;-64
2020/12/29 03:45:27;;;;;;;8.80;5.78;;;;;;;;;;5044207;28;20562;-64
2020/12/29 03:47:53;;;;;;;11.93;6.43;;;;;;;;;;5045007;28;20041;-64
2020/12/29 03:50:19;;;;;;;14.38;7.65;;;;;;;;;;5046324;28;20037;-64
2020/12/29 03:52:46;;;;;;;9.32;6.05;;;;;;;;;;5048925;28;20047;-65
2020/12/29 03:55:12;;;;;;;10.98;6.85;;;;;;;;;;5048560;28;20049;-64
2020/12/29 03:57:38;;;;;;;10.40;6.35;;;;;;;;;;5042031;28;20140;-64
2020/12/29 04:00:08;;;;;;;10.80;5.90;;;;;;;;;;5038253;28;20465;-64
2020/12/29 04:02:34;;;;;;;16.83;6.38;;;;;;;;;;5041613;28;20071;-64
2020/12/29 04:05:00;;;;;;;9.80;6.20;;;;;;;;;;5047321;28;20658;-64
2020/12/29 04:07:26;;;;;;;8.05;5.78;;;;;;;;;;5047976;28;20119;-64
2020/12/29 04:09:52;;;;;;;11.00;7.00;;;;;;;;;;5048570;28;20503;-64
2020/12/29 04:12:18;;;;;;;9.27;6.15;;;;;;;;;;5048937;28;20861;-64
2020/12/29 04:14:44;;;;;;;7.40;5.38;;;;;;;;;;5047678;28;20040;-64
2020/12/29 04:17:10;;;;;;;7.38;5.40;;;;;;;;;;5047011;28;20052;-64
2020/12/29 04:19:36;;;;;;;8.77;5.88;;;;;;;;;;5046733;28;20056;-64
2020/12/29 04:22:02;;;;;;;14.18;7.10;;;;;;;;;;5047329;28;20048;-64
2020/12/29 04:24:28;;;;;;;11.23;5.97;;;;;;;;;;5048700;28;20044;-64
2020/12/29 04:26:54;;;;;;;12.93;6.60;;;;;;;;;;5047710;28;20111;-64
2020/12/29 04:29:20;;;;;;;12.98;7.90;;;;;;;;;;5039552;28;20126;-64
2020/12/29 04:31:47;;;;;;;9.50;5.50;;;;;;;;;;5046719;28;20045;-64
2020/12/29 04:34:13;;;;;;;8.18;5.07;;;;;;;;;;5048104;28;20400;-63
2020/12/29 04:36:39;;;;;;;6.18;4.35;;;;;;;;;;5047465;28;20542;-64
2020/12/29 04:39:05;;;;;;;7.07;4.88;;;;;;;;;;5045444;28;20409;-64
2020/12/29 04:41:31;;;;;;;7.00;4.63;;;;;;;;;;5044660;28;20492;-64
2020/12/29 04:43:58;;;;;;;10.90;6.15;;;;;;;;;;5047380;28;20044;-65
2020/12/29 04:46:24;;;;;;;5.65;4.20;;;;;;;;;;5046538;28;20551;-63
2020/12/29 04:48:50;;;;;;;8.40;5.30;;;;;;;;;;5047283;28;20060;-64
2020/12/29 04:51:16;;;;;;;5.63;3.83;;;;;;;;;;5047252;28;20041;-64
2020/12/29 04:53:55;;;;;;;5.40;3.90;;;;;;;;;;5047531;28;20048;-64
2020/12/29 04:56:24;;;;;;;4.78;3.67;;;;;;;;;;5047686;28;20131;-64
2020/12/29 04:58:50;;;;;;;5.28;3.53;;;;;;;;;;5046505;28;20048;-64
2020/12/29 05:01:22;;;;;;;5.40;3.90;;;;;;;;;;5046682;28;20048;-64
2020/12/29 05:03:49;;;;;;;5.70;4.05;;;;;;;;;;5043043;28;20052;-64
2020/12/29 05:06:16;;;;;;;8.75;5.03;;;;;;;;;;5046470;28;20045;-64
2020/12/29 05:08:46;;;;;;;4.90;3.75;;;;;;;;;;5045408;28;20044;-64
2020/12/29 05:11:12;;;;;;;6.95;4.60;;;;;;;;;;5049936;28;20091;-64
2020/12/29 05:13:38;;;;;;;15.07;6.47;;;;;;;;;;5045764;28;20049;-64
2020/12/29 05:16:04;;;;;;;6.57;4.05;;;;;;;;;;5046396;28;20051;-64
2020/12/29 05:18:30;;;;;;;5.50;3.72;;;;;;;;;;5047146;28;20080;-64
2020/12/29 05:20:57;;;;;;;6.53;3.72;;;;;;;;;;5046915;28;20077;-64
2020/12/29 05:23:23;;;;;;;4.45;3.05;;;;;;;;;;5046034;28;20476;-64
2020/12/29 05:25:50;;;;;;;5.70;3.50;;;;;;;;;;5046836;28;20131;-64
2020/12/29 05:28:18;;;;;;;6.30;3.78;;;;;;;;;;5043986;28;20036;-64
2020/12/29 05:30:44;;;;;;;6.18;4.30;;;;;;;;;;5046222;28;20111;-64
2020/12/29 05:33:13;;;;;;;5.57;3.80;;;;;;;;;;5045992;28;20120;-64
2020/12/29 05:35:42;;;;;;;6.18;4.30;;;;;;;;;;5045543;28;20214;-64
2020/12/29 05:38:08;;;;;;;6.28;3.60;;;;;;;;;;5046019;28;20045;-64
2020/12/29 05:40:35;;;;;;;4.07;3.00;;;;;;;;;;5047889;28;20037;-64
2020/12/29 05:43:02;;;;;;;5.20;3.85;;;;;;;;;;5045736;28;20053;-64
2020/12/29 05:45:29;;;;;;;4.57;3.38;;;;;;;;;;5045870;28;20049;-65
2020/12/29 05:47:59;;;;;;;5.93;3.00;;;;;;;;;;5047246;28;20047;-64
2020/12/29 05:50:27;;;;;;;4.93;2.90;;;;;;;;;;5041592;28;20501;-64
2020/12/29 05:53:12;;;;;;;4.72;3.75;;;;;;;;;;5043185;28;20037;-64
2020/12/29 05:55:38;;;;;;;4.85;3.50;;;;;;;;;;5026598;28;20083;-64
2020/12/29 05:58:05;;;;;;;4.88;3.53;;;;;;;;;;5026106;28;20260;-64
2020/12/29 06:00:32;;;;;;;3.40;2.80;;;;;;;;;;5025545;28;20049;-64
2020/12/29 06:02:59;;;;;;;5.55;3.58;;;;;;;;;;5041754;28;20094;-64
2020/12/29 06:05:26;;;;;;;4.15;2.88;;;;;;;;;;5044899;28;20069;-64
2020/12/29 06:07:58;;;;;;;5.53;3.28;;;;;;;;;;5045223;28;20059;-64
2020/12/29 06:10:25;;;;;;;8.77;4.03;;;;;;;;;;5047815;28;20052;-64
2020/12/29 06:13:01;;;;;;;5.35;3.83;;;;;;;;;;5045769;28;20045;-64
2020/12/29 06:15:27;;;;;;;6.85;4.50;;;;;;;;;;5045165;28;22507;-64
2020/12/29 06:17:54;;;;;;;6.72;4.60;;;;;;;;;;5044599;28;20464;-64
2020/12/29 06:20:20;;;;;;;7.22;4.63;;;;;;;;;;5044715;28;20037;-63
2020/12/29 06:22:49;;;;;;;7.97;5.13;;;;;;;;;;5044070;28;20048;-64
2020/12/29 06:25:16;;;;;;;6.82;4.05;;;;;;;;;;5045192;28;20068;-64
2020/12/29 06:27:50;;;;;;;6.03;4.30;;;;;;;;;;5045316;28;20045;-64
2020/12/29 06:30:18;;;;;;;5.93;3.83;;;;;;;;;;5044679;28;20575;-67
2020/12/29 06:32:45;;;;;;;6.22;4.45;;;;;;;;;;5042751;28;20040;-66
2020/12/29 06:35:11;;;;;;;5.90;3.97;;;;;;;;;;5038587;28;20033;-66
2020/12/29 06:37:39;;;;;;;6.03;3.55;;;;;;;;;;5041558;28;20564;-66
2020/12/29 06:40:06;;;;;;;5.40;3.75;;;;;;;;;;5036251;28;20037;-66
2020/12/29 06:42:33;;;;;;;10.20;4.35;;;;;;;;;;5041733;28;20037;-66
2020/12/29 06:45:00;;;;;;;6.55;4.28;;;;;;;;;;5044255;28;20045;-66
2020/12/29 06:47:27;;;;;;;10.80;4.50;;;;;;;;;;5043810;28;20040;-66
2020/12/29 06:49:54;;;;;;;8.00;5.10;;;;;;;;;;5044830;28;20049;-67
2020/12/29 06:52:26;;;;;;;7.15;4.75;;;;;;;;;;5045298;28;20404;-66
2020/12/29 06:54:58;;;;;;;14.73;5.28;;;;;;;;;;5044504;28;20124;-66
2020/12/29 06:57:38;;;;;;;5.18;3.40;;;;;;;;;;5042601;28;20028;-66
2020/12/29 07:00:13;;;;;;;5.50;3.50;;;;;;;;;;5041058;28;20044;-67
2020/12/29 07:02:40;;;;;;;6.30;3.78;;;;;;;;;;5041283;28;20036;-66
2020/12/29 07:05:32;;;;;;;4.68;3.45;;;;;;;;;;5036781;28;20048;-66
2020/12/29 07:08:07;;;;;;;7.18;4.20;;;;;;;;;;5023929;28;20053;-66
2020/12/29 07:10:46;;;;;;;6.75;3.92;;;;;;;;;;5040368;28;20040;-66
2020/12/29 07:13:19;;;;;;;8.43;4.13;;;;;;;;;;5046813;28;20041;-66
2020/12/29 07:15:48;;;;;;;10.25;5.60;;;;;;;;;;5040673;28;20044;-66
2020/12/29 07:18:27;;;;;;;6.50;4.25;;;;;;;;;;5043632;28;20033;-66
2020/12/29 07:20:54;;;;;;;8.32;4.60;;;;;;;;;;5044303;28;20045;-67
2020/12/29 07:23:21;;;;;;;5.60;3.70;;;;;;;;;;5044412;28;20079;-66
2020/12/29 07:25:51;;;;;;;6.05;3.85;;;;;;;;;;5047009;28;20474;-66
2020/12/29 07:28:22;;;;;;;6.88;4.05;;;;;;;;;;5047422;28;20057;-67
2020/12/29 07:30:50;;;;;;;4.93;2.83;;;;;;;;;;5039220;28;20044;-66
2020/12/29 07:33:18;;;;;;;5.50;3.53;;;;;;;;;;5049135;28;20051;-66
2020/12/29 07:35:45;;;;;;;8.48;4.30;;;;;;;;;;5047569;28;20049;-67
2020/12/29 07:38:14;;;;;;;5.82;3.80;;;;;;;;;;5047855;28;20029;-66
2020/12/29 07:40:41;;;;;;;5.82;3.53;;;;;;;;;;5050599;28;20118;-65
2020/12/29 07:43:07;;;;;;;3.53;2.47;;;;;;;;;;5048896;28;20080;-64
2020/12/29 07:45:34;;;;;;;3.42;2.60;;;;;;;;;;5045453;28;20033;-64
2020/12/29 07:48:01;;;;;;;7.80;3.03;;;;;;;;;;5039199;28;20029;-63
2020/12/29 07:50:27;;;;;;;3.55;2.63;;;;;;;;;;5037941;28;20120;-65
2020/12/29 07:53:03;;;;;;;5.43;2.42;;;;;;;;;;5048046;28;20052;-65
2020/12/29 07:55:29;;;;;;;3.10;2.22;;;;;;;;;;5046864;28;20852;-68
2020/12/29 07:57:56;;;;;;;2.85;1.90;;;;;;;;;;5048103;28;20045;-68
2020/12/29 08:00:22;;;;;;;3.70;2.15;;;;;;;;;;5047669;28;20048;-68
2020/12/29 08:02:50;;;;;;;2.72;2.00;;;;;;;;;;5047722;28;20053;-66
2020/12/29 08:05:16;;;;;;;2.35;2.00;;;;;;;;;;5046850;28;20262;-68
2020/12/29 08:07:42;;;;;;;4.18;2.17;;;;;;;;;;5047137;28;20099;-65
2020/12/29 08:10:08;;;;;;;6.07;2.25;;;;;;;;;;5048683;28;20079;-65
2020/12/29 08:12:34;;;;;;;3.10;1.90;;;;;;;;;;5048157;28;20048;-69
2020/12/29 08:15:00;;;;;;;1.85;1.70;;;;;;;;;;5047656;28;20068;-67
2020/12/29 08:17:26;;;;;;;7.95;2.13;;;;;;;;;;5047634;28;20049;-65
2020/12/29 08:19:59;;;;;;;2.40;1.92;;;;;;;;;;5040335;28;20037;-65
2020/12/29 08:22:27;;;;;;;2.55;1.98;;;;;;;;;;5045419;28;20408;-64
2020/12/29 08:24:53;;;;;;;2.05;1.70;;;;;;;;;;5048048;28;20057;-64
2020/12/29 08:27:19;;;;;;;2.28;1.75;;;;;;;;;;5046493;28;20175;-65
2020/12/29 08:29:45;;;;;;;3.25;1.67;;;;;;;;;;5038873;28;20116;-63
2020/12/29 08:32:12;;;;;;;2.35;1.70;;;;;;;;;;5046915;28;20134;-64
2020/12/29 08:34:45;;;;;;;2.40;1.83;;;;;;;;;;5046782;28;20052;-64
2020/12/29 08:37:13;;;;;;;3.58;1.73;;;;;;;;;;5046431;28;20114;-63
2020/12/29 08:39:58;;;;;;;3.45;2.10;;;;;;;;;;5046081;28;20032;-62
2020/12/29 08:42:25;;;;;;;2.50;1.80;;;;;;;;;;5041582;28;20093;-64
2020/12/29 08:44:53;;;;;;;6.80;2.08;;;;;;;;;;5032996;28;20057;-64
2020/12/29 08:47:19;;;;;;;3.97;2.30;;;;;;;;;;5038693;28;20090;-63
2020/12/29 08:49:44;;;;;;;7.20;2.42;;;;;;;;;;5045309;28;20032;-63
2020/12/29 08:52:11;;;;;;;4.18;1.70;;;;;;;;;;5045765;28;20559;-68
2020/12/29 08:54:40;;;;;;;3.45;2.60;;;;;;;;;;5047105;28;20053;-64
2020/12/29 08:57:07;;;;;;;3.05;2.08;;;;;;;;;;5046649;28;20203;-61
2020/12/29 08:59:37;;;;;;;7.22;1.95;;;;;;;;;;5047301;28;20037;-65
2020/12/29 09:02:03;;;;;;;3.13;2.20;;;;;;;;;;5046010;28;20570;-65
2020/12/29 09:04:39;;;;;;;3.53;3.08;;;;;;;;;;5043802;28;20060;-65
2020/12/29 09:07:09;;;;;;;3.92;2.60;;;;;;;;;;5046546;28;20049;-65
2020/12/29 09:09:40;;;;;;;2.80;2.20;;;;;;;;;;5045283;28;20053;-64
2020/12/29 09:12:11;;;;;;;3.55;2.72;;;;;;;;;;5048843;28;20595;-65
2020/12/29 09:14:38;;;;;;;5.13;2.58;;;;;;;;;;5047302;28;20277;-65
2020/12/29 09:17:05;;;;;;;3.63;2.60;;;;;;;;;;5045750;28;20044;-65
2020/12/29 09:19:31;;;;;;;4.53;3.08;;;;;;;;;;5046740;28;20045;-65
2020/12/29 09:22:07;;;;;;;5.65;4.30;;;;;;;;;;5046362;28;20095;-63
2020/12/29 09:24:33;;;;;;;8.70;5.30;;;;;;;;;;5045084;28;20053;-63
2020/12/29 09:26:59;;;;;;;4.28;3.25;;;;;;;;;;5046289;28;20071;-64
2020/12/29 09:29:25;;;;;;;5.93;3.55;;;;;;;;;;5046336;28;20067;-63
2020/12/29 09:31:52;;;;;;;6.43;3.40;;;;;;;;;;5045017;28;20459;-64
2020/12/29 09:34:18;;;;;;;7.05;3.65;;;;;;;;;;5046314;28;20045;-64
2020/12/29 09:36:44;;;;;;;8.02;5.05;;;;;;;;;;5045005;28;20052;-63
2020/12/29 09:39:10;;;;;;;12.80;7.70;;;;;;;;;;5044467;28;20122;-64
2020/12/29 09:41:36;;;;;;;8.55;5.90;;;;;;;;;;5045328;28;20033;-64
2020/12/29 09:44:02;;;;;;;9.18;4.85;;;;;;;;;;5038299;28;20046;-63
2020/12/29 09:46:38;;;;;;;7.55;4.03;;;;;;;;;;5044510;28;20074;-64
2020/12/29 09:49:05;;;;;;;5.25;3.33;;;;;;;;;;5043630;28;20141;-64
2020/12/29 09:51:31;;;;;;;5.88;4.13;;;;;;;;;;5044771;28;20037;-63
2020/12/29 09:53:57;;;;;;;8.23;4.50;;;;;;;;;;5045407;28;20098;-63
2020/12/29 09:56:23;;;;;;;7.80;4.10;;;;;;;;;;5042965;28;20069;-63
2020/12/29 09:58:49;;;;;;;10.82;4.25;;;;;;;;;;5045044;28;20476;-61
2020/12/29 10:01:16;;;;;;;7.15;3.70;;;;;;;;;;5044519;28;20053;-61
2020/12/29 10:03:42;;;;;;;6.93;3.95;;;;;;;;;;5045602;28;20056;-61
2020/12/29 10:06:08;;;;;;;10.13;3.80;;;;;;;;;;5038831;28;20061;-62
2020/12/29 10:08:36;;;;;;;7.95;3.78;;;;;;;;;;5026385;28;20044;-61
2020/12/29 10:11:03;;;;;;;9.38;5.05;;;;;;;;;;5039538;28;20448;-61
2020/12/29 10:13:29;;;;;;;16.77;6.55;;;;;;;;;;5037690;28;20500;-62
2020/12/29 10:15:55;;;;;;;7.68;3.70;;;;;;;;;;5044692;28;20041;-61
2020/12/29 10:18:21;;;;;;;7.22;3.30;;;;;;;;;;5043811;28;20038;-61
2020/12/29 10:20:47;;;;;;;10.48;3.17;;;;;;;;;;5045713;28;20029;-60
2020/12/29 10:23:13;;;;;;;6.68;3.17;;;;;;;;;;5042106;28;20036;-62
2020/12/29 10:25:39;;;;;;;6.30;3.00;;;;;;;;;;5044772;28;20522;-62
2020/12/29 10:28:05;;;;;;;4.75;2.70;;;;;;;;;;5043336;28;20049;-62
2020/12/29 10:30:31;;;;;;;6.28;3.00;;;;;;;;;;5043991;28;20039;-61
2020/12/29 10:32:58;;;;;;;6.50;2.47;;;;;;;;;;5045451;28;20037;-61
2020/12/29 10:35:24;;;;;;;9.77;2.88;;;;;;;;;;5044745;28;20091;-61
2020/12/29 10:37:50;;;;;;;5.18;2.20;;;;;;;;;;5044350;28;20124;-62
2020/12/29 10:40:16;;;;;;;3.97;2.00;;;;;;;;;;5042821;28;20060;-61
2020/12/29 10:42:42;;;;;;;4.20;2.40;;;;;;;;;;5044107;28;20385;-61
2020/12/29 10:45:08;;;;;;;3.90;2.10;;;;;;;;;;5043990;28;20033;-63
2020/12/29 10:47:34;;;;;;;4.95;1.85;;;;;;;;;;5044435;28;20040;-64
2020/12/29 10:50:00;;;;;;;3.65;2.10;;;;;;;;;;5044392;28;20094;-64
2020/12/29 10:52:26;;;;;;;7.40;1.92;;;;;;;;;;5043707;28;20210;-64
2020/12/29 10:54:52;;;;;;;7.18;2.10;;;;;;;;;;5044504;28;20152;-64
2020/12/29 10:57:19;;;;;;;10.60;2.67;;;;;;;;;;5040552;28;20051;-64
2020/12/29 10:59:45;;;;;;;5.68;2.30;;;;;;;;;;5042666;28;20028;-63
2020/12/29 11:02:11;;;;;;;3.70;2.50;;;;;;;;;;5043565;28;20045;-64
2020/12/29 11:04:37;;;;;;;7.53;2.83;;;;;;;;;;5035360;28;20097;-64
2020/12/29 11:07:04;;;;;;;10.57;4.47;;;;;;;;;;5043947;28;20048;-64
2020/12/29 11:09:30;;;;;;;7.60;4.50;;;;;;;;;;5043707;28;20098;-64
2020/12/29 11:11:56;;;;;;;11.25;4.90;;;;;;;;;;5046622;28;20049;-64
2020/12/29 11:14:22;;;;;;;9.75;4.20;;;;;;;;;;5043540;28;20727;-64
2020/12/29 11:16:49;;;;;;;10.48;3.80;;;;;;;;;;5043608;28;20041;-64
2020/12/29 11:19:15;;;;;;;11.10;3.92;;;;;;;;;;5043375;28;20033;-64
2020/12/29 11:21:41;;;;;;;11.38;4.57;;;;;;;;;;5044017;28;20048;-63
2020/12/29 11:24:07;;;;;;;14.55;6.65;;;;;;;;;;5043249;28;20051;-63
2020/12/29 11:26:33;;;;;;;15.40;8.38;;;;;;;;;;5043919;28;20028;-64
2020/12/29 11:28:59;;;;;;;14.10;5.85;;;;;;;;;;5043038;28;20095;-64
2020/12/29 11:31:25;;;;;;;11.27;5.63;;;;;;;;;;5043160;28;20037;-64
2020/12/29 11:33:51;;;;;;;12.20;6.55;;;;;;;;;;5044337;28;20047;-64
2020/12/29 11:36:18;;;;;;;9.13;4.32;;;;;;;;;;5043659;28;20044;-65
2020/12/29 11:38:44;;;;;;;6.35;3.63;;;;;;;;;;5041533;28;20068;-63
2020/12/29 11:41:11;;;;;;;8.32;3.83;;;;;;;;;;5045985;28;20130;-63
2020/12/29 11:43:37;;;;;;;5.75;3.47;;;;;;;;;;5043037;28;20052;-64
2020/12/29 11:46:10;;;;;;;15.70;4.28;;;;;;;;;;5040937;28;20036;-63
2020/12/29 11:48:36;;;;;;;7.18;2.97;;;;;;;;;;5024033;28;20124;-64
2020/12/29 11:51:02;;;;;;;9.40;3.45;;;;;;;;;;5024392;28;20049;-63
2020/12/29 11:53:28;;;;;;;5.07;3.45;;;;;;;;;;5023428;28;20041;-63
2020/12/29 11:55:54;;;;;;;6.60;3.10;;;;;;;;;;5038317;28;20037;-61
2020/12/29 11:58:20;;;;;;;6.50;2.88;;;;;;;;;;5042644;28;20112;-62
2020/12/29 12:00:46;;;;;;;8.00;3.58;;;;;;;;;;5044302;28;20037;-62
2020/12/29 12:03:12;;;;;;;6.90;2.78;;;;;;;;;;5043051;28;20041;-62
2020/12/29 12:05:38;;;;;;;8.73;3.10;;;;;;;;;;5043188;28;20049;-61
2020/12/29 12:08:04;;;;;;;6.32;2.97;;;;;;;;;;5043565;28;20040;-61
2020/12/29 12:10:30;;;;;;;4.95;3.03;;;;;;;;;;5046681;28;20036;-61
2020/12/29 12:12:56;;;;;;;8.75;3.25;;;;;;;;;;5047799;28;20045;-62
2020/12/29 12:15:22;;;;;;;8.05;3.10;;;;;;;;;;5046725;28;20112;-62
2020/12/29 12:17:48;;;;;;;4.07;2.70;;;;;;;;;;5046647;28;20037;-62
2020/12/29 12:20:14;;;;;;;9.90;2.88;;;;;;;;;;5046933;28;20040;-62
2020/12/29 12:22:40;;;;;;;8.07;2.90;;;;;;;;;;5047114;28;20471;-62
2020/12/29 12:25:06;;;;;;;;;;;;;;;;;;5047910;28;20068;-62
2020/12/29 12:27:32;;;;;;;9.60;3.47;;;;;;;;;;5043969;28;19921;-63
2020/12/29 12:29:58;;;;;;;9.45;3.15;;;;;;;;;;5038846;28;20043;-62
2020/12/29 12:32:24;;;;;;;;;;;;;;;;;;5045838;28;20084;-62
2020/12/29 12:34:50;;;;;;;7.43;3.30;;;;;;;;;;5046177;28;20366;-62
2020/12/29 12:37:16;;;;;;;5.45;2.72;;;;;;;;;;5046107;28;20075;-62
2020/12/29 12:39:42;;;;;;;6.95;2.92;;;;;;;;;;5046349;28;20044;-62
2020/12/29 12:42:09;;;;;;;8.93;3.05;;;;;;;;;;5047427;28;20021;-63
2020/12/29 12:44:35;;;;;;;8.80;3.03;;;;;;;;;;5046823;28;20634;-63
2020/12/29 12:47:01;;;;;;;11.50;3.22;;;;;;;;;;5045891;28;20041;-62
2020/12/29 12:49:27;;;;;;;5.97;3.15;;;;;;;;;;5046293;28;20130;-62
2020/12/29 12:51:53;;;;;;;8.98;4.30;;;;;;;;;;5043031;28;20075;-62
2020/12/29 12:54:21;;;;;;;6.60;3.45;;;;;;;;;;5046273;28;20055;-62
2020/12/29 12:56:51;;;;;;;8.27;3.22;;;;;;;;;;5045755;28;20124;-62
2020/12/29 12:59:17;;;;;;;5.35;2.63;;;;;;;;;;5045240;28;20045;-63
2020/12/29 13:01:43;;;;;;;4.18;2.40;;;;;;;;;;5045247;28;20037;-63
2020/12/29 13:04:09;;;;;;;17.23;9.75;;;;;;;;;;5046592;28;20053;-62
2020/12/29 13:06:35;;;;;;;5.82;3.47;;;;;;;;;;5045583;28;20041;-63
2020/12/29 13:09:01;;;;;;;3.92;2.55;;;;;;;;;;5044801;28;20056;-63
2020/12/29 13:11:27;;;;;;;4.50;2.85;;;;;;;;;;5046723;28;20060;-63
2020/12/29 13:13:53;;;;;;;4.75;2.67;;;;;;;;;;5046717;28;20558;-63
2020/12/29 13:16:23;;;;;;;5.93;2.80;;;;;;;;;;5044445;28;20092;-63
2020/12/29 13:18:50;;;;;;;5.03;2.83;;;;;;;;;;5046155;28;20036;-62
2020/12/29 13:21:17;;;;;;;3.78;2.75;;;;;;;;;;5045268;28;20059;-63
2020/12/29 13:23:43;;;;;;;8.98;3.70;;;;;;;;;;5045606;28;20153;-63
2020/12/29 13:26:15;;;;;;;3.90;2.30;;;;;;;;;;5044658;28;20040;-63
2020/12/29 13:28:42;;;;;;;7.78;3.25;;;;;;;;;;5044664;28;20521;-61
2020/12/29 13:31:08;;;;;;;5.35;2.50;;;;;;;;;;5044826;28;20059;-63
2020/12/29 13:33:35;;;;;;;6.78;2.60;;;;;;;;;;5044736;28;20109;-62
2020/12/29 13:36:03;;;;;;;5.65;2.88;;;;;;;;;;5045948;28;20501;-65
2020/12/29 13:38:29;;;;;;;5.63;2.80;;;;;;;;;;5043709;28;20102;-66
2020/12/29 13:40:55;;;;;;;8.15;3.90;;;;;;;;;;5047248;28;20037;-63
2020/12/29 13:43:21;;;;;;;5.53;3.05;;;;;;;;;;5044947;28;20037;-63
2020/12/29 13:45:47;;;;;;;3.88;2.65;;;;;;;;;;5045460;28;20062;-65
2020/12/29 13:48:13;;;;;;;5.63;2.97;;;;;;;;;;5045661;28;20481;-65
2020/12/29 13:50:39;;;;;;;4.75;2.78;;;;;;;;;;5044894;28;20088;-65
2020/12/29 13:53:05;;;;;;;7.80;2.72;;;;;;;;;;5045173;28;20086;-65
2020/12/29 13:55:31;;;;;;;6.30;3.22;;;;;;;;;;5039802;28;20041;-66
2020/12/29 13:57:57;;;;;;;5.85;3.08;;;;;;;;;;5040603;28;20044;-62
2020/12/29 14:00:23;;;;;;;7.20;3.95;;;;;;;;;;5043723;28;20043;-63
2020/12/29 14:02:49;;;;;;;9.82;3.75;;;;;;;;;;5044418;28;20051;-63
2020/12/29 14:05:15;;;;;;;6.10;3.67;;;;;;;;;;5044674;28;20084;-63
2020/12/29 14:07:41;;;;;;;5.07;2.90;;;;;;;;;;5043411;28;20040;-62
2020/12/29 14:10:07;;;;;;;7.18;4.00;;;;;;;;;;5042530;28;20040;-62
2020/12/29 14:12:33;;;;;;;8.57;3.95;;;;;;;;;;5045302;28;20044;-62
2020/12/29 14:14:59;;;;;;;4.90;3.55;;;;;;;;;;5041890;28;20049;-62
2020/12/29 14:17:26;;;;;;;5.25;3.30;;;;;;;;;;5043818;28;20496;-62
2020/12/29 14:19:52;;;;;;;7.05;3.42;;;;;;;;;;5035763;28;20079;-62
2020/12/29 14:22:18;;;;;;;6.15;3.10;;;;;;;;;;5025380;28;21015;-62
2020/12/29 14:24:44;;;;;;;7.75;2.90;;;;;;;;;;5041984;28;20091;-62
2020/12/29 14:27:10;;;;;;;5.95;3.30;;;;;;;;;;5043495;28;20083;-63
2020/12/29 14:29:36;;;;;;;13.13;3.90;;;;;;;;;;5043300;28;20037;-63
2020/12/29 14:32:02;;;;;;;9.98;3.25;;;;;;;;;;5044098;28;20041;-63
2020/12/29 14:34:28;;;;;;;9.43;3.72;;;;;;;;;;5044029;28;20531;-63
2020/12/29 14:36:54;;;;;;;5.70;3.53;;;;;;;;;;5044644;28;20041;-63
2020/12/29 14:39:20;;;;;;;5.68;3.45;;;;;;;;;;5043557;28;20033;-63
2020/12/29 14:41:48;;;;;;;5.78;3.38;;;;;;;;;;5046402;28;20053;-63